createdAt,value
2023-03-31T00:01:00.681Z,86
2023-03-31T00:02:07.540Z,86
2023-03-31T00:03:14.333Z,86
2023-03-31T00:04:21.083Z,86
2023-03-31T00:05:27.848Z,86
2023-03-31T00:06:34.777Z,86
2023-03-31T00:07:41.364Z,87
2023-03-31T00:08:48.154Z,87
2023-03-31T00:10:03.964Z,87
2023-03-31T00:11:01.990Z,86
2023-03-31T00:12:08.736Z,87
2023-03-31T00:13:18.429Z,86
2023-03-31T00:14:25.216Z,86
2023-03-31T00:15:32.038Z,86
2023-03-31T00:16:38.913Z,86
2023-03-31T00:17:45.768Z,86
2023-03-31T00:18:52.548Z,87
2023-03-31T00:19:59.328Z,87
2023-03-31T00:21:06.152Z,87
2023-03-31T00:22:15.628Z,87
2023-03-31T00:23:22.392Z,86
2023-03-31T00:24:29.207Z,87
2023-03-31T00:25:36.136Z,87
2023-03-31T00:26:42.900Z,87
2023-03-31T00:27:49.876Z,87
2023-03-31T00:28:56.758Z,87
2023-03-31T00:30:03.523Z,87
2023-03-31T00:31:10.733Z,87
2023-03-31T00:32:17.511Z,87
2023-03-31T00:33:24.302Z,87
2023-03-31T00:34:31.045Z,87
2023-03-31T00:35:37.815Z,87
2023-03-31T00:36:44.587Z,87
2023-03-31T00:37:51.326Z,87
2023-03-31T00:38:58.085Z,87
2023-03-31T00:40:04.821Z,87
2023-03-31T00:41:14.392Z,87
2023-03-31T00:42:21.214Z,87
2023-03-31T00:43:28.011Z,87
2023-03-31T00:44:37.853Z,87
2023-03-31T00:45:52.231Z,87
2023-03-31T00:46:58.955Z,87
2023-03-31T00:48:10.782Z,87
2023-03-31T00:49:17.608Z,87
2023-03-31T00:50:27.013Z,87
2023-03-31T00:51:33.955Z,88
2023-03-31T00:52:40.727Z,87
2023-03-31T00:53:47.504Z,87
2023-03-31T00:54:54.309Z,87
2023-03-31T00:56:04.211Z,87
2023-03-31T00:57:10.756Z,87
2023-03-31T00:58:17.513Z,87
2023-03-31T00:59:24.295Z,87
2023-03-31T01:00:31.167Z,87
2023-03-31T01:01:37.988Z,88
2023-03-31T01:02:44.739Z,87
2023-03-31T01:03:51.698Z,87
2023-03-31T01:04:58.601Z,87
2023-03-31T01:06:05.546Z,86
2023-03-31T01:07:12.201Z,87
2023-03-31T01:08:21.675Z,87
2023-03-31T01:09:28.433Z,87
2023-03-31T01:10:35.213Z,87
2023-03-31T01:11:45.157Z,87
2023-03-31T01:12:52.070Z,87
2023-03-31T01:13:58.792Z,87
2023-03-31T01:15:05.566Z,88
2023-03-31T01:16:12.474Z,88
2023-03-31T01:17:19.567Z,88
2023-03-31T01:18:26.163Z,88
2023-03-31T01:19:32.822Z,88
2023-03-31T01:20:42.435Z,87
2023-03-31T01:21:57.135Z,88
2023-03-31T01:23:11.759Z,88
2023-03-31T01:24:26.506Z,87
2023-03-31T01:25:43.383Z,88
2023-03-31T01:26:55.237Z,88
2023-03-31T01:28:04.554Z,88
2023-03-31T01:29:16.393Z,87
2023-03-31T01:30:23.154Z,88
2023-03-31T01:31:32.595Z,88
2023-03-31T01:32:44.791Z,88
2023-03-31T01:33:59.543Z,88
2023-03-31T01:35:16.396Z,88
2023-03-31T01:36:28.245Z,88
2023-03-31T01:37:40.097Z,88
2023-03-31T01:38:51.971Z,88
2023-03-31T01:40:08.869Z,88
2023-03-31T01:41:23.287Z,87
2023-03-31T01:42:35.185Z,88
2023-03-31T01:43:48.186Z,88
2023-03-31T01:44:57.779Z,87
2023-03-31T01:46:04.674Z,88
2023-03-31T01:47:19.148Z,88
2023-03-31T01:48:28.939Z,88
2023-03-31T01:49:35.744Z,88
2023-03-31T01:50:52.655Z,88
2023-03-31T01:52:07.728Z,87
2023-03-31T01:53:22.410Z,87
2023-03-31T01:54:36.963Z,88
2023-03-31T01:55:48.850Z,88
2023-03-31T01:56:58.281Z,87
2023-03-31T01:58:05.070Z,88
2023-03-31T01:59:16.900Z,88
2023-03-31T02:00:23.792Z,88
2023-03-31T02:01:31.328Z,88
2023-03-31T02:02:47.639Z,87
2023-03-31T02:03:57.062Z,87
2023-03-31T02:05:03.736Z,88
2023-03-31T02:06:15.673Z,88
2023-03-31T02:07:22.504Z,88
2023-03-31T02:08:34.234Z,88
2023-03-31T02:09:43.895Z,88
2023-03-31T02:10:53.338Z,88
2023-03-31T02:12:00.126Z,87
2023-03-31T02:13:07.018Z,87
2023-03-31T02:14:13.845Z,88
2023-03-31T02:15:23.193Z,87
2023-03-31T02:16:29.984Z,88
2023-03-31T02:17:36.718Z,87
2023-03-31T02:18:43.471Z,87
2023-03-31T02:19:50.283Z,87
2023-03-31T02:20:57.014Z,88
2023-03-31T02:22:03.770Z,87
2023-03-31T02:23:10.513Z,88
2023-03-31T02:24:17.330Z,88
2023-03-31T02:25:24.196Z,88
2023-03-31T02:26:33.876Z,88
2023-03-31T02:27:40.626Z,88
2023-03-31T02:28:47.436Z,87
2023-03-31T02:29:54.186Z,88
2023-03-31T02:31:01.005Z,87
2023-03-31T02:32:12.907Z,87
2023-03-31T02:33:27.445Z,87
2023-03-31T02:34:34.222Z,88
2023-03-31T02:35:41.083Z,87
2023-03-31T02:36:47.846Z,87
2023-03-31T02:37:54.753Z,87
2023-03-31T02:39:01.534Z,87
2023-03-31T02:40:08.254Z,87
2023-03-31T02:41:14.992Z,88
2023-03-31T02:42:21.882Z,88
2023-03-31T02:43:28.750Z,88
2023-03-31T02:44:35.488Z,88
2023-03-31T02:45:42.376Z,87
2023-03-31T02:46:49.058Z,88
2023-03-31T02:47:55.825Z,88
2023-03-31T02:49:02.716Z,88
2023-03-31T02:50:09.431Z,88
2023-03-31T02:51:16.193Z,88
2023-03-31T02:52:28.001Z,88
2023-03-31T02:53:42.428Z,88
2023-03-31T02:54:54.294Z,88
2023-03-31T02:56:06.259Z,88
2023-03-31T02:57:20.669Z,88
2023-03-31T02:58:32.524Z,87
2023-03-31T02:59:44.365Z,87
2023-03-31T03:01:01.448Z,87
2023-03-31T03:02:18.371Z,87
2023-03-31T03:03:35.321Z,88
2023-03-31T03:04:44.848Z,87
2023-03-31T03:05:59.774Z,87
2023-03-31T03:07:14.092Z,87
2023-03-31T03:08:29.066Z,87
2023-03-31T03:09:40.881Z,87
2023-03-31T03:10:50.334Z,87
2023-03-31T03:12:05.074Z,87
2023-03-31T03:13:14.829Z,87
2023-03-31T03:14:31.889Z,87
2023-03-31T03:15:43.802Z,87
2023-03-31T03:16:50.600Z,87
2023-03-31T03:17:57.448Z,87
2023-03-31T03:19:04.233Z,88
2023-03-31T03:20:11.002Z,87
2023-03-31T03:21:17.809Z,88
2023-03-31T03:22:24.661Z,88
2023-03-31T03:23:31.404Z,87
2023-03-31T03:24:38.154Z,87
2023-03-31T03:25:44.914Z,87
2023-03-31T03:26:51.706Z,87
2023-03-31T03:27:58.543Z,87
2023-03-31T03:29:05.281Z,87
2023-03-31T03:30:12.042Z,87
2023-03-31T03:31:18.836Z,87
2023-03-31T03:32:25.514Z,87
2023-03-31T03:33:32.418Z,88
2023-03-31T03:34:39.161Z,87
2023-03-31T03:35:45.948Z,87
2023-03-31T03:36:52.675Z,87
2023-03-31T03:37:59.443Z,87
2023-03-31T03:39:06.173Z,87
2023-03-31T03:40:12.920Z,88
2023-03-31T03:41:19.672Z,87
2023-03-31T03:42:26.463Z,87
2023-03-31T03:43:33.176Z,87
2023-03-31T03:44:39.985Z,88
2023-03-31T03:45:46.841Z,87
2023-03-31T03:46:53.626Z,87
2023-03-31T03:48:00.467Z,87
2023-03-31T03:49:07.248Z,87
2023-03-31T03:50:15.905Z,87
2023-03-31T03:51:21.007Z,87
2023-03-31T03:52:27.758Z,87
2023-03-31T03:53:34.535Z,87
2023-03-31T03:54:41.349Z,87
2023-03-31T03:55:48.208Z,87
2023-03-31T03:56:55.113Z,87
2023-03-31T03:58:01.828Z,87
2023-03-31T03:59:08.511Z,87
2023-03-31T04:00:15.362Z,87
2023-03-31T04:01:22.432Z,87
2023-03-31T04:02:29.353Z,87
2023-03-31T04:03:35.987Z,87
2023-03-31T04:04:42.785Z,88
2023-03-31T04:05:49.456Z,88
2023-03-31T04:06:56.217Z,88
2023-03-31T04:08:03.092Z,88
2023-03-31T04:09:09.803Z,87
2023-03-31T04:10:16.574Z,88
2023-03-31T04:11:23.268Z,87
2023-03-31T04:12:29.980Z,88
2023-03-31T04:13:40.154Z,87
2023-03-31T04:14:46.291Z,87
2023-03-31T04:15:53.019Z,87
2023-03-31T04:16:59.783Z,88
2023-03-31T04:18:06.491Z,87
2023-03-31T04:19:16.034Z,87
2023-03-31T04:20:22.762Z,88
2023-03-31T04:21:32.631Z,88
2023-03-31T04:22:39.564Z,87
2023-03-31T04:23:46.352Z,88
2023-03-31T04:24:56.319Z,87
2023-03-31T04:26:03.091Z,87
2023-03-31T04:27:09.834Z,88
2023-03-31T04:28:16.572Z,88
2023-03-31T04:29:23.426Z,88
2023-03-31T04:30:30.146Z,88
2023-03-31T04:31:36.888Z,88
2023-03-31T04:32:43.666Z,88
2023-03-31T04:33:50.465Z,88
2023-03-31T04:34:57.302Z,88
2023-03-31T04:36:04.694Z,88
2023-03-31T04:37:16.136Z,88
2023-03-31T04:38:22.981Z,88
2023-03-31T04:39:32.842Z,88
2023-03-31T04:40:39.680Z,88
2023-03-31T04:41:46.450Z,88
2023-03-31T04:42:53.158Z,88
2023-03-31T04:43:59.960Z,88
2023-03-31T04:45:06.866Z,88
2023-03-31T04:46:13.874Z,88
2023-03-31T04:47:20.645Z,88
2023-03-31T04:48:27.406Z,88
2023-03-31T04:49:34.152Z,87
2023-03-31T04:50:40.924Z,88
2023-03-31T04:51:47.664Z,88
2023-03-31T04:52:54.587Z,88
2023-03-31T04:54:01.340Z,88
2023-03-31T04:55:08.088Z,87
2023-03-31T04:56:14.956Z,88
2023-03-31T04:57:21.849Z,88
2023-03-31T04:58:28.554Z,88
2023-03-31T04:59:35.342Z,88
2023-03-31T05:00:42.251Z,88
2023-03-31T05:01:49.334Z,88
2023-03-31T05:02:56.294Z,87
2023-03-31T05:04:02.988Z,87
2023-03-31T05:05:09.820Z,87
2023-03-31T05:06:16.618Z,88
2023-03-31T05:07:23.414Z,88
2023-03-31T05:08:30.346Z,88
2023-03-31T05:09:37.075Z,88
2023-03-31T05:10:43.794Z,88
2023-03-31T05:11:50.534Z,88
2023-03-31T05:12:57.261Z,88
2023-03-31T05:14:04.131Z,87
2023-03-31T05:15:10.825Z,87
2023-03-31T05:16:17.642Z,87
2023-03-31T05:17:24.311Z,87
2023-03-31T05:18:31.068Z,88
2023-03-31T05:19:37.912Z,88
2023-03-31T05:20:44.700Z,87
2023-03-31T05:21:51.437Z,88
2023-03-31T05:22:58.235Z,88
2023-03-31T05:24:05.039Z,87
2023-03-31T05:25:12.061Z,87
2023-03-31T05:26:18.917Z,87
2023-03-31T05:27:25.618Z,87
2023-03-31T05:28:32.627Z,87
2023-03-31T05:29:39.297Z,87
2023-03-31T05:30:46.171Z,87
2023-03-31T05:31:52.987Z,87
2023-03-31T05:32:59.708Z,87
2023-03-31T05:34:06.414Z,87
2023-03-31T05:35:13.180Z,87
2023-03-31T05:36:20.256Z,87
2023-03-31T05:37:26.918Z,87
2023-03-31T05:38:33.833Z,87
2023-03-31T05:39:40.513Z,87
2023-03-31T05:40:47.339Z,87
2023-03-31T05:41:54.138Z,87
2023-03-31T05:43:00.871Z,87
2023-03-31T05:44:07.718Z,87
2023-03-31T05:45:14.439Z,87
2023-03-31T05:46:21.293Z,87
2023-03-31T05:47:28.133Z,87
2023-03-31T05:48:34.927Z,87
2023-03-31T05:49:41.653Z,86
2023-03-31T05:50:48.400Z,86
2023-03-31T05:51:55.156Z,86
2023-03-31T05:53:01.934Z,86
2023-03-31T05:54:08.783Z,86
2023-03-31T05:55:15.580Z,86
2023-03-31T05:56:22.409Z,86
2023-03-31T05:57:29.197Z,86
2023-03-31T05:58:36.078Z,86
2023-03-31T05:59:42.961Z,86
2023-03-31T06:00:49.773Z,85
2023-03-31T06:02:04.546Z,86
2023-03-31T06:03:11.392Z,86
2023-03-31T06:04:18.351Z,85
2023-03-31T06:05:24.995Z,86
2023-03-31T06:06:31.775Z,86
2023-03-31T06:07:38.615Z,86
2023-03-31T06:08:45.421Z,85
2023-03-31T06:09:52.236Z,86
2023-03-31T06:11:00.246Z,86
2023-03-31T06:12:07.668Z,86
2023-03-31T06:13:14.589Z,86
2023-03-31T06:14:21.246Z,86
2023-03-31T06:15:28.096Z,86
2023-03-31T06:16:34.895Z,86
2023-03-31T06:17:41.681Z,85
2023-03-31T06:18:48.725Z,85
2023-03-31T06:19:55.464Z,85
2023-03-31T06:21:02.228Z,85
2023-03-31T06:22:09.036Z,85
2023-03-31T06:23:15.768Z,85
2023-03-31T06:24:22.631Z,85
2023-03-31T06:25:34.576Z,85
2023-03-31T06:26:36.156Z,85
2023-03-31T06:27:42.977Z,85
2023-03-31T06:28:49.768Z,84
2023-03-31T06:29:56.507Z,84
2023-03-31T06:31:03.746Z,84
2023-03-31T06:32:10.313Z,84
2023-03-31T06:33:17.221Z,84
2023-03-31T06:34:23.822Z,83
2023-03-31T06:35:30.709Z,84
2023-03-31T06:36:37.502Z,83
2023-03-31T06:37:44.255Z,83
2023-03-31T06:38:51.279Z,83
2023-03-31T06:39:57.893Z,83
2023-03-31T06:41:04.901Z,83
2023-03-31T06:42:11.487Z,83
2023-03-31T06:43:18.318Z,83
2023-03-31T06:44:25.043Z,83
2023-03-31T06:45:31.870Z,83
2023-03-31T06:46:38.779Z,82
2023-03-31T06:47:45.548Z,83
2023-03-31T06:48:52.413Z,83
2023-03-31T06:49:59.401Z,82
2023-03-31T06:51:06.000Z,83
2023-03-31T06:52:12.809Z,83
2023-03-31T06:53:19.636Z,82
2023-03-31T06:54:26.446Z,82
2023-03-31T06:55:33.564Z,82
2023-03-31T06:56:39.981Z,82
2023-03-31T06:57:46.688Z,82
2023-03-31T06:58:53.508Z,82
2023-03-31T07:00:00.386Z,82
2023-03-31T07:01:07.576Z,82
2023-03-31T07:02:14.143Z,82
2023-03-31T07:03:20.904Z,83
2023-03-31T07:04:27.791Z,82
2023-03-31T07:05:34.695Z,82
2023-03-31T07:06:41.477Z,82
2023-03-31T07:07:48.199Z,81
2023-03-31T07:08:54.973Z,81
2023-03-31T07:10:01.800Z,81
2023-03-31T07:11:09.276Z,82
2023-03-31T07:12:15.760Z,82
2023-03-31T07:13:22.491Z,81
2023-03-31T07:14:29.230Z,81
2023-03-31T07:15:36.000Z,80
2023-03-31T07:16:42.903Z,81
2023-03-31T07:17:49.645Z,80
2023-03-31T07:18:56.332Z,81
2023-03-31T07:20:03.045Z,80
2023-03-31T07:21:10.547Z,80
2023-03-31T07:22:17.045Z,80
2023-03-31T07:23:23.818Z,80
2023-03-31T07:24:30.540Z,80
2023-03-31T07:25:37.297Z,80
2023-03-31T07:26:44.045Z,80
2023-03-31T07:27:50.860Z,80
2023-03-31T07:28:57.819Z,80
2023-03-31T07:30:04.489Z,80
2023-03-31T07:31:11.495Z,79
2023-03-31T07:32:18.327Z,79
2023-03-31T07:33:25.066Z,79
2023-03-31T07:34:31.890Z,79
2023-03-31T07:35:38.751Z,79
2023-03-31T07:36:45.569Z,79
2023-03-31T07:37:52.218Z,78
2023-03-31T07:38:59.093Z,78
2023-03-31T07:40:05.899Z,78
2023-03-31T07:41:12.765Z,78
2023-03-31T07:42:19.481Z,78
2023-03-31T07:43:26.237Z,78
2023-03-31T07:44:33.133Z,79
2023-03-31T07:45:40.035Z,78
2023-03-31T07:46:46.817Z,78
2023-03-31T07:47:53.682Z,78
2023-03-31T07:49:00.499Z,78
2023-03-31T07:50:07.278Z,78
2023-03-31T07:51:14.205Z,77
2023-03-31T07:52:20.993Z,77
2023-03-31T07:53:27.703Z,77
2023-03-31T07:54:34.489Z,77
2023-03-31T07:55:41.274Z,76
2023-03-31T07:56:48.196Z,76
2023-03-31T07:57:54.948Z,76
2023-03-31T07:59:01.715Z,76
2023-03-31T08:00:08.507Z,76
2023-03-31T08:01:15.597Z,76
2023-03-31T08:02:22.557Z,76
2023-03-31T08:03:29.282Z,76
2023-03-31T08:04:36.201Z,76
2023-03-31T08:05:42.852Z,76
2023-03-31T08:06:49.589Z,75
2023-03-31T08:07:56.313Z,76
2023-03-31T08:09:03.076Z,76
2023-03-31T08:10:09.841Z,76
2023-03-31T08:11:16.594Z,76
2023-03-31T08:12:23.332Z,76
2023-03-31T08:13:30.278Z,76
2023-03-31T08:14:40.918Z,77
2023-03-31T08:15:43.885Z,76
2023-03-31T08:16:50.629Z,75
2023-03-31T08:17:57.391Z,75
2023-03-31T08:19:04.180Z,75
2023-03-31T08:20:10.995Z,75
2023-03-31T08:21:17.713Z,75
2023-03-31T08:22:24.513Z,76
2023-03-31T08:23:31.276Z,75
2023-03-31T08:24:38.065Z,74
2023-03-31T08:25:44.933Z,75
2023-03-31T08:26:51.747Z,75
2023-03-31T08:27:58.503Z,74
2023-03-31T08:29:05.269Z,74
2023-03-31T08:30:12.052Z,74
2023-03-31T08:31:19.194Z,73
2023-03-31T08:32:25.873Z,73
2023-03-31T08:33:32.593Z,73
2023-03-31T08:34:39.340Z,73
2023-03-31T08:35:46.136Z,72
2023-03-31T08:36:52.815Z,72
2023-03-31T08:37:59.627Z,72
2023-03-31T08:39:06.464Z,71
2023-03-31T08:40:13.192Z,72
2023-03-31T08:41:19.952Z,71
2023-03-31T08:42:36.867Z,71
2023-03-31T08:43:49.443Z,71
2023-03-31T08:44:56.160Z,72
2023-03-31T08:46:13.157Z,71
2023-03-31T08:47:20.001Z,71
2023-03-31T08:48:26.835Z,70
2023-03-31T08:49:33.640Z,71
2023-03-31T08:50:43.000Z,71
2023-03-31T08:51:49.735Z,71
2023-03-31T08:52:56.477Z,71
2023-03-31T08:54:12.505Z,71
2023-03-31T08:55:20.755Z,71
2023-03-31T08:56:27.415Z,71
2023-03-31T08:57:37.184Z,71
2023-03-31T08:58:49.367Z,71
2023-03-31T08:59:56.116Z,71
2023-03-31T09:01:02.915Z,70
2023-03-31T09:02:12.427Z,70
2023-03-31T09:03:29.460Z,71
2023-03-31T09:04:41.241Z,69
2023-03-31T09:06:00.431Z,69
2023-03-31T09:07:02.446Z,69
2023-03-31T09:08:14.316Z,69
2023-03-31T09:09:31.325Z,69
2023-03-31T09:10:43.190Z,70
2023-03-31T09:12:00.072Z,70
2023-03-31T09:13:06.784Z,70
2023-03-31T09:14:13.595Z,69
2023-03-31T09:15:28.316Z,69
2023-03-31T09:16:40.162Z,69
2023-03-31T09:17:52.050Z,69
2023-03-31T09:18:58.708Z,68
2023-03-31T09:20:05.571Z,68
2023-03-31T09:21:17.433Z,68
2023-03-31T09:22:29.357Z,68
2023-03-31T09:23:36.127Z,68
2023-03-31T09:24:42.864Z,67
2023-03-31T09:25:52.389Z,67
2023-03-31T09:26:59.225Z,68
2023-03-31T09:28:09.005Z,68
2023-03-31T09:29:23.996Z,69
2023-03-31T09:30:40.969Z,68
2023-03-31T09:31:47.801Z,69
2023-03-31T09:32:54.517Z,68
2023-03-31T09:34:11.333Z,69
2023-03-31T09:35:18.140Z,68
2023-03-31T09:36:24.917Z,69
2023-03-31T09:37:31.653Z,69
2023-03-31T09:38:38.402Z,69
2023-03-31T09:39:45.161Z,70
2023-03-31T09:40:52.171Z,69
2023-03-31T09:41:58.878Z,68
2023-03-31T09:43:05.670Z,68
2023-03-31T09:44:12.395Z,69
2023-03-31T09:45:29.314Z,69
2023-03-31T09:46:36.167Z,70
2023-03-31T09:47:42.863Z,69
2023-03-31T09:48:49.549Z,70
2023-03-31T09:50:01.409Z,70
2023-03-31T09:51:08.422Z,69
2023-03-31T09:52:17.975Z,70
2023-03-31T09:53:30.472Z,70
2023-03-31T09:54:40.036Z,69
2023-03-31T09:55:49.590Z,69
2023-03-31T09:56:56.369Z,69
2023-03-31T09:58:03.138Z,69
2023-03-31T09:59:09.962Z,68
2023-03-31T10:00:17.061Z,68
2023-03-31T10:01:23.835Z,68
2023-03-31T10:02:30.539Z,68
2023-03-31T10:03:39.953Z,68
2023-03-31T10:04:54.737Z,69
2023-03-31T10:06:01.482Z,68
2023-03-31T10:07:14.106Z,68
2023-03-31T10:08:20.977Z,68
2023-03-31T10:09:30.253Z,68
2023-03-31T10:10:37.058Z,68
2023-03-31T10:11:43.855Z,69
2023-03-31T10:12:55.814Z,68
2023-03-31T10:14:02.699Z,68
2023-03-31T10:15:14.650Z,67
2023-03-31T10:16:24.566Z,67
2023-03-31T10:17:33.968Z,67
2023-03-31T10:18:38.245Z,67
2023-03-31T10:19:44.804Z,66
2023-03-31T10:20:54.641Z,67
2023-03-31T10:22:01.423Z,67
2023-03-31T10:23:13.197Z,67
2023-03-31T10:24:20.072Z,67
2023-03-31T10:25:26.892Z,67
2023-03-31T10:26:33.712Z,67
2023-03-31T10:27:40.509Z,68
2023-03-31T10:28:47.433Z,68
2023-03-31T10:29:54.069Z,68
2023-03-31T10:31:00.999Z,68
2023-03-31T10:32:07.775Z,68
2023-03-31T10:33:22.955Z,67
2023-03-31T10:34:26.410Z,67
2023-03-31T10:35:33.242Z,67
2023-03-31T10:36:39.982Z,67
2023-03-31T10:37:49.569Z,67
2023-03-31T10:38:59.259Z,66
2023-03-31T10:40:08.893Z,67
2023-03-31T10:41:20.958Z,66
2023-03-31T10:42:30.368Z,66
2023-03-31T10:43:37.112Z,66
2023-03-31T10:44:43.948Z,67
2023-03-31T10:45:50.721Z,67
2023-03-31T10:46:57.705Z,67
2023-03-31T10:48:07.283Z,67
2023-03-31T10:49:21.634Z,67
2023-03-31T10:50:28.396Z,66
2023-03-31T10:51:35.247Z,67
2023-03-31T10:52:42.013Z,67
2023-03-31T10:53:48.823Z,67
2023-03-31T10:54:55.530Z,67
2023-03-31T10:56:02.410Z,67
2023-03-31T10:57:12.374Z,66
2023-03-31T10:58:19.328Z,66
2023-03-31T10:59:31.216Z,66
2023-03-31T11:00:45.803Z,66
2023-03-31T11:02:00.708Z,66
2023-03-31T11:03:17.267Z,67
2023-03-31T11:04:28.922Z,66
2023-03-31T11:05:40.775Z,65
2023-03-31T11:06:55.543Z,66
2023-03-31T11:08:12.490Z,65
2023-03-31T11:09:29.427Z,64
2023-03-31T11:10:41.355Z,63
2023-03-31T11:11:53.131Z,64
2023-03-31T11:13:04.944Z,64
2023-03-31T11:14:22.014Z,62
2023-03-31T11:15:38.988Z,62
2023-03-31T11:16:50.823Z,62
2023-03-31T11:18:07.779Z,60
2023-03-31T11:19:24.623Z,60
2023-03-31T11:20:34.055Z,59
2023-03-31T11:21:50.943Z,59
2023-03-31T11:23:00.693Z,59
2023-03-31T11:24:15.135Z,58
2023-03-31T11:25:32.106Z,57
2023-03-31T11:26:49.007Z,56
2023-03-31T11:28:00.871Z,56
2023-03-31T11:29:17.792Z,57
2023-03-31T11:30:32.462Z,57
2023-03-31T11:31:41.834Z,58
2023-03-31T11:32:53.753Z,58
2023-03-31T11:34:10.563Z,59
2023-03-31T11:35:17.304Z,59
2023-03-31T11:36:29.810Z,58
2023-03-31T11:37:41.650Z,58
2023-03-31T11:38:53.485Z,57
2023-03-31T11:40:03.229Z,57
2023-03-31T11:41:15.123Z,57
2023-03-31T11:42:24.652Z,57
2023-03-31T11:43:31.399Z,56
2023-03-31T11:44:43.312Z,57
2023-03-31T11:45:50.139Z,57
2023-03-31T11:47:02.093Z,56
2023-03-31T11:48:14.117Z,56
2023-03-31T11:49:30.975Z,56
2023-03-31T11:50:40.336Z,56
2023-03-31T11:51:47.131Z,56
2023-03-31T11:52:56.821Z,55
2023-03-31T11:54:03.736Z,55
2023-03-31T11:55:10.586Z,55
2023-03-31T11:56:20.398Z,55
2023-03-31T11:57:27.256Z,55
2023-03-31T11:58:36.552Z,55
2023-03-31T11:59:43.326Z,55
2023-03-31T12:00:50.154Z,55
2023-03-31T12:01:56.921Z,55
2023-03-31T12:03:08.824Z,55
2023-03-31T12:04:18.305Z,55
2023-03-31T12:05:32.764Z,55
2023-03-31T12:06:39.529Z,55
2023-03-31T12:07:46.251Z,55
2023-03-31T12:08:55.941Z,55
2023-03-31T12:10:10.617Z,56
2023-03-31T12:11:25.503Z,56
2023-03-31T12:12:40.507Z,56
2023-03-31T12:13:49.888Z,56
2023-03-31T12:14:56.687Z,56
2023-03-31T12:16:06.464Z,55
2023-03-31T12:17:15.972Z,56
2023-03-31T12:18:30.808Z,56
2023-03-31T12:19:37.559Z,56
2023-03-31T12:20:54.539Z,56
2023-03-31T12:22:01.351Z,56
2023-03-31T12:23:13.186Z,55
2023-03-31T12:24:22.874Z,56
2023-03-31T12:25:29.659Z,57
2023-03-31T12:26:36.506Z,58
2023-03-31T12:27:53.410Z,58
2023-03-31T12:29:00.247Z,59
2023-03-31T12:30:09.916Z,58
2023-03-31T12:31:19.847Z,59
2023-03-31T12:32:26.626Z,59
2023-03-31T12:33:33.381Z,59
2023-03-31T12:34:43.214Z,60
2023-03-31T12:35:55.114Z,59
2023-03-31T12:37:07.050Z,59
2023-03-31T12:38:18.938Z,59
2023-03-31T12:39:35.830Z,60
2023-03-31T12:40:50.296Z,61
2023-03-31T12:42:02.132Z,62
2023-03-31T12:43:16.748Z,63
2023-03-31T12:44:31.604Z,63
2023-03-31T12:45:46.082Z,67
2023-03-31T12:46:57.872Z,67
2023-03-31T12:48:12.482Z,68
2023-03-31T12:49:27.339Z,68
2023-03-31T12:50:44.310Z,68
2023-03-31T12:51:56.959Z,69
2023-03-31T12:53:08.787Z,69
2023-03-31T12:54:18.266Z,68
2023-03-31T12:55:35.098Z,68
2023-03-31T12:56:47.547Z,68
2023-03-31T12:58:04.475Z,69
2023-03-31T12:59:21.444Z,69
2023-03-31T13:00:33.508Z,70
2023-03-31T13:01:40.628Z,70
2023-03-31T13:02:57.334Z,68
2023-03-31T13:04:15.819Z,68
2023-03-31T13:05:21.043Z,69
2023-03-31T13:06:38.004Z,69
2023-03-31T13:07:44.809Z,70
2023-03-31T13:08:51.690Z,70
2023-03-31T13:10:06.406Z,70
2023-03-31T13:11:20.952Z,71
2023-03-31T13:12:37.935Z,72
2023-03-31T13:14:59.491Z,71
2023-03-31T13:16:06.262Z,71
2023-03-31T13:17:13.098Z,71
2023-03-31T13:18:27.451Z,71
2023-03-31T13:19:34.292Z,70
2023-03-31T13:20:41.131Z,70
2023-03-31T13:21:49.086Z,69
2023-03-31T13:22:57.672Z,70
2023-03-31T13:24:09.499Z,71
2023-03-31T13:25:16.240Z,71
2023-03-31T13:26:33.093Z,72
2023-03-31T13:27:39.984Z,72
2023-03-31T13:28:51.829Z,72
2023-03-31T13:30:03.616Z,73
2023-03-31T13:31:10.560Z,73
2023-03-31T13:32:17.368Z,72
2023-03-31T13:33:26.902Z,73
2023-03-31T13:34:38.820Z,74
2023-03-31T13:35:45.842Z,74
2023-03-31T13:36:57.704Z,74
2023-03-31T13:38:12.372Z,74
2023-03-31T13:39:27.090Z,74
2023-03-31T13:40:33.854Z,74
2023-03-31T13:41:50.784Z,75
2023-03-31T13:43:05.390Z,76
2023-03-31T13:44:19.951Z,76
2023-03-31T13:45:34.600Z,76
2023-03-31T13:46:46.408Z,76
2023-03-31T13:48:03.410Z,77
2023-03-31T13:49:20.257Z,76
2023-03-31T13:50:29.773Z,77
2023-03-31T13:51:46.836Z,78
2023-03-31T13:52:58.731Z,77
2023-03-31T13:54:10.559Z,76
2023-03-31T13:55:22.797Z,77
2023-03-31T13:56:37.538Z,78
2023-03-31T13:57:54.389Z,76
2023-03-31T13:59:06.313Z,75
2023-03-31T14:00:18.199Z,74
2023-03-31T14:01:32.720Z,72
2023-03-31T14:02:47.291Z,71
2023-03-31T14:03:56.935Z,71
2023-03-31T14:05:11.545Z,71
2023-03-31T14:06:23.489Z,71
2023-03-31T14:07:40.385Z,70
2023-03-31T14:08:47.173Z,70
2023-03-31T14:09:56.584Z,70
2023-03-31T14:11:03.406Z,70
2023-03-31T14:12:20.271Z,70
2023-03-31T14:13:34.889Z,70
2023-03-31T14:14:41.713Z,70
2023-03-31T14:15:48.490Z,70
2023-03-31T14:17:00.354Z,70
2023-03-31T14:18:07.189Z,70
2023-03-31T14:19:13.850Z,70
2023-03-31T14:20:25.695Z,69
2023-03-31T14:21:32.461Z,70
2023-03-31T14:22:44.270Z,70
2023-03-31T14:23:59.152Z,70
2023-03-31T14:25:10.952Z,70
2023-03-31T14:26:20.458Z,70
2023-03-31T14:27:37.997Z,70
2023-03-31T14:28:50.302Z,70
2023-03-31T14:30:02.227Z,70
2023-03-31T14:31:09.247Z,70
2023-03-31T14:32:20.868Z,70
2023-03-31T14:33:32.737Z,70
2023-03-31T14:34:49.609Z,70
2023-03-31T14:36:01.512Z,70
2023-03-31T14:37:13.319Z,70
2023-03-31T14:38:20.151Z,70
2023-03-31T14:39:26.978Z,71
2023-03-31T14:40:33.720Z,70
2023-03-31T14:41:40.435Z,71
2023-03-31T14:42:47.240Z,71
2023-03-31T14:43:54.124Z,71
2023-03-31T14:45:00.961Z,71
2023-03-31T14:46:08.022Z,71
2023-03-31T14:47:14.718Z,71
2023-03-31T14:48:24.521Z,71
2023-03-31T14:49:31.363Z,71
2023-03-31T14:50:38.240Z,71
2023-03-31T14:51:45.000Z,71
2023-03-31T14:52:54.401Z,70
2023-03-31T14:54:01.213Z,70
2023-03-31T14:55:08.086Z,71
2023-03-31T14:56:17.783Z,70
2023-03-31T14:57:24.628Z,70
2023-03-31T14:58:34.070Z,70
2023-03-31T14:59:41.025Z,70
2023-03-31T15:00:47.924Z,70
2023-03-31T15:01:54.655Z,70
2023-03-31T15:03:01.514Z,70
2023-03-31T15:04:08.305Z,70
2023-03-31T15:05:15.133Z,70
2023-03-31T15:06:29.517Z,70
2023-03-31T15:07:36.322Z,70
2023-03-31T15:08:43.211Z,70
2023-03-31T15:09:49.974Z,70
2023-03-31T15:11:02.245Z,70
2023-03-31T15:12:03.488Z,70
2023-03-31T15:13:10.328Z,69
2023-03-31T15:14:22.220Z,70
2023-03-31T15:15:34.858Z,69
2023-03-31T15:16:41.864Z,69
2023-03-31T15:17:48.354Z,69
2023-03-31T15:18:55.238Z,69
2023-03-31T15:20:02.090Z,69
2023-03-31T15:21:19.056Z,69
2023-03-31T15:22:25.773Z,69
2023-03-31T15:23:32.736Z,69
2023-03-31T15:24:39.484Z,68
2023-03-31T15:25:46.262Z,69
2023-03-31T15:26:53.119Z,69
2023-03-31T15:28:02.557Z,69
2023-03-31T15:29:09.346Z,69
2023-03-31T15:30:16.211Z,68
2023-03-31T15:31:23.162Z,69
2023-03-31T15:32:29.973Z,69
2023-03-31T15:33:39.329Z,68
2023-03-31T15:34:46.136Z,68
2023-03-31T15:35:52.948Z,68
2023-03-31T15:36:59.801Z,69
2023-03-31T15:38:06.880Z,69
2023-03-31T15:39:13.573Z,68
2023-03-31T15:40:20.346Z,68
2023-03-31T15:41:27.160Z,68
2023-03-31T15:42:35.028Z,67
2023-03-31T15:43:40.853Z,67
2023-03-31T15:44:50.533Z,67
2023-03-31T15:45:57.371Z,67
2023-03-31T15:47:04.080Z,66
2023-03-31T15:48:21.021Z,66
2023-03-31T15:49:32.886Z,66
2023-03-31T15:50:39.762Z,66
2023-03-31T15:51:46.639Z,66
2023-03-31T15:52:53.444Z,66
2023-03-31T15:54:00.217Z,66
2023-03-31T15:55:07.065Z,66
2023-03-31T15:56:23.933Z,66
2023-03-31T15:57:38.586Z,66
2023-03-31T15:58:45.373Z,66
2023-03-31T15:59:57.365Z,67
2023-03-31T16:01:04.258Z,66
2023-03-31T16:02:11.095Z,67
2023-03-31T16:03:24.113Z,67
2023-03-31T16:04:29.839Z,67
2023-03-31T16:05:40.537Z,67
2023-03-31T16:06:43.833Z,67
2023-03-31T16:07:55.625Z,67
2023-03-31T16:09:02.399Z,67
2023-03-31T16:10:09.188Z,67
2023-03-31T16:11:23.738Z,66
2023-03-31T16:12:35.569Z,66
2023-03-31T16:13:45.146Z,67
2023-03-31T16:14:54.657Z,66
2023-03-31T16:16:01.436Z,67
2023-03-31T16:17:08.302Z,66
2023-03-31T16:18:15.140Z,66
2023-03-31T16:19:22.215Z,66
2023-03-31T16:20:29.009Z,66
2023-03-31T16:21:35.711Z,67
2023-03-31T16:22:42.537Z,67